createdAt,value
2022-09-06T00:02:20.329Z,99249.10
2022-09-06T00:04:47.137Z,99251.13
2022-09-06T00:07:13.942Z,99249.63
2022-09-06T00:09:40.774Z,99251.73
2022-09-06T00:12:07.874Z,99248.91
2022-09-06T00:14:34.641Z,99246.47
2022-09-06T00:17:01.428Z,99245.80
2022-09-06T00:19:28.202Z,99246.34
2022-09-06T00:21:54.973Z,99250.05
2022-09-06T00:24:21.715Z,99246.34
2022-09-06T00:26:48.554Z,99245.30
2022-09-06T00:29:15.419Z,99242.27
2022-09-06T00:31:42.212Z,99240.61
2022-09-06T00:34:09.130Z,99238.60
2022-09-06T00:36:35.939Z,99243.89
2022-09-06T00:39:02.948Z,99254.84
2022-09-06T00:41:29.750Z,99254.96
2022-09-06T00:43:57.068Z,99255.13
2022-09-06T00:46:28.971Z,99259.48
2022-09-06T00:49:01.436Z,99258.51
2022-09-06T00:51:30.547Z,99255.67
2022-09-06T00:53:58.399Z,99250.91
2022-09-06T00:56:26.561Z,99251.49
2022-09-06T00:58:53.582Z,99254.39
2022-09-06T01:01:20.428Z,99255.63
2022-09-06T01:03:47.584Z,99250.32
2022-09-06T01:06:18.383Z,99247.75
2022-09-06T01:09:08.872Z,99245.45
2022-09-06T01:11:49.707Z,99244.42
2022-09-06T01:14:48.056Z,99241.98
2022-09-06T01:17:16.838Z,99243.23
2022-09-06T01:20:10.636Z,99237.72
2022-09-06T01:22:48.818Z,99237.71
2022-09-06T01:25:46.969Z,99236.94
2022-09-06T01:28:33.606Z,99237.12
2022-09-06T01:31:05.492Z,99240.84
2022-09-06T01:34:03.637Z,99238.02
2022-09-06T01:36:49.716Z,99242.29
2022-09-06T01:39:31.174Z,99239.44
2022-09-06T01:42:01.533Z,99235.13
2022-09-06T01:44:30.607Z,99235.43
2022-09-06T01:47:05.375Z,99234.48
2022-09-06T01:49:49.163Z,99235.02
2022-09-06T01:52:22.017Z,99234.79
2022-09-06T01:55:07.322Z,99231.56
2022-09-06T01:57:51.805Z,99229.21
2022-09-06T02:00:19.888Z,99233.95
2022-09-06T02:03:01.244Z,99228.95
2022-09-06T02:05:36.346Z,99229.92
2022-09-06T02:08:11.036Z,99229.00
2022-09-06T02:10:44.893Z,99227.20
2022-09-06T02:13:15.458Z,99223.31
2022-09-06T02:15:47.715Z,99223.98
2022-09-06T02:18:21.754Z,99219.88
2022-09-06T02:20:52.510Z,99217.37
2022-09-06T02:23:23.426Z,99218.27
2022-09-06T02:25:55.053Z,99216.55
2022-09-06T02:28:23.175Z,99216.85
2022-09-06T02:30:56.482Z,99212.20
2022-09-06T02:33:28.616Z,99214.94
2022-09-06T02:35:56.030Z,99215.30
2022-09-06T02:38:25.073Z,99213.81
2022-09-06T02:40:54.100Z,99211.91
2022-09-06T02:43:21.857Z,99210.18
2022-09-06T02:45:48.755Z,99214.63
2022-09-06T02:48:15.710Z,99208.83
2022-09-06T02:50:42.668Z,99206.81
2022-09-06T02:53:12.408Z,99209.55
2022-09-06T02:55:39.969Z,99212.35
2022-09-06T02:58:09.013Z,99209.42
2022-09-06T03:00:36.019Z,99211.34
2022-09-06T03:03:03.939Z,99204.71
2022-09-06T03:05:31.190Z,99200.88
2022-09-06T03:07:57.989Z,99198.29
2022-09-06T03:10:26.342Z,99200.30
2022-09-06T03:12:53.636Z,99199.33
2022-09-06T03:15:21.006Z,99199.85
2022-09-06T03:17:47.895Z,99201.50
2022-09-06T03:20:14.991Z,99202.66
2022-09-06T03:22:42.189Z,99202.90
2022-09-06T03:25:10.449Z,99198.83
2022-09-06T03:27:37.775Z,99201.83
2022-09-06T03:30:06.333Z,99198.23
2022-09-06T03:32:33.322Z,99193.86
2022-09-06T03:35:00.151Z,99196.09
2022-09-06T03:37:27.417Z,99193.54
2022-09-06T03:39:54.814Z,99195.05
2022-09-06T03:42:22.027Z,99193.73
2022-09-06T03:44:48.918Z,99195.04
2022-09-06T03:47:19.487Z,99193.25
2022-09-06T03:49:47.621Z,99193.48
2022-09-06T03:52:14.897Z,99189.21
2022-09-06T03:54:41.706Z,99189.84
2022-09-06T03:57:08.870Z,99196.54
2022-09-06T03:59:35.747Z,99197.50
2022-09-06T04:02:03.522Z,99194.48
2022-09-06T04:04:30.372Z,99190.17
2022-09-06T04:06:58.058Z,99190.85
2022-09-06T04:09:25.285Z,99186.70
2022-09-06T04:11:52.304Z,99189.98
2022-09-06T04:14:19.441Z,99183.56
2022-09-06T04:16:46.419Z,99189.88
2022-09-06T04:19:13.319Z,99183.86
2022-09-06T04:21:40.561Z,99191.67
2022-09-06T04:24:07.508Z,99191.46
2022-09-06T04:26:34.653Z,99190.63
2022-09-06T04:29:01.738Z,99192.64
2022-09-06T04:31:29.270Z,99196.10
2022-09-06T04:33:56.218Z,99197.83
2022-09-06T04:36:23.483Z,99203.57
2022-09-06T04:38:50.490Z,99198.70
2022-09-06T04:41:19.489Z,99204.21
2022-09-06T04:43:46.410Z,99203.79
2022-09-06T04:46:30.288Z,99204.29
2022-09-06T04:48:59.174Z,99206.94
2022-09-06T04:51:26.312Z,99208.64
2022-09-06T04:53:53.579Z,99205.64
2022-09-06T04:56:24.411Z,99210.12
2022-09-06T04:58:52.866Z,99214.73
2022-09-06T05:01:20.889Z,99211.78
2022-09-06T05:03:47.977Z,99215.23
2022-09-06T05:06:21.945Z,99216.77
2022-09-06T05:08:50.101Z,99215.31
2022-09-06T05:11:18.158Z,99213.37
2022-09-06T05:13:47.157Z,99216.61
2022-09-06T05:16:14.357Z,99210.77
2022-09-06T05:18:41.974Z,99212.69
2022-09-06T05:21:09.042Z,99212.11
2022-09-06T05:23:36.237Z,99214.86
2022-09-06T05:26:03.880Z,99208.20
2022-09-06T05:28:31.175Z,99209.40
2022-09-06T05:31:25.949Z,99191.83
2022-09-06T05:33:53.636Z,99212.17
2022-09-06T05:36:23.401Z,99211.11
2022-09-06T05:38:51.488Z,99207.85
2022-09-06T05:41:18.968Z,99212.69
2022-09-06T05:43:46.839Z,99214.08
2022-09-06T05:46:14.362Z,99215.33
2022-09-06T05:48:42.162Z,99214.70
2022-09-06T05:51:13.332Z,99216.70
2022-09-06T05:53:42.576Z,99212.70
2022-09-06T05:56:10.677Z,99214.55
2022-09-06T05:58:39.068Z,99216.74
2022-09-06T06:01:08.453Z,99203.14
2022-09-06T06:03:35.468Z,99213.67
2022-09-06T06:06:02.426Z,99204.61
2022-09-06T06:08:29.368Z,99205.75
2022-09-06T06:11:00.366Z,99202.30
2022-09-06T06:13:30.259Z,99194.74
2022-09-06T06:15:57.290Z,99185.48
2022-09-06T06:18:24.238Z,99174.44
2022-09-06T06:20:52.122Z,99184.09
2022-09-06T06:23:21.441Z,99175.04
2022-09-06T06:25:48.495Z,99177.93
2022-09-06T06:28:15.418Z,99181.42
2022-09-06T06:30:42.467Z,99178.73
2022-09-06T06:33:09.318Z,99187.25
2022-09-06T06:35:39.948Z,99186.53
2022-09-06T06:38:07.106Z,99178.59
2022-09-06T06:40:35.160Z,99183.88
2022-09-06T06:43:02.273Z,99185.56
2022-09-06T06:45:33.569Z,99181.59
2022-09-06T06:48:00.603Z,99185.51
2022-09-06T06:50:28.405Z,99191.77
2022-09-06T06:52:55.987Z,99189.08
2022-09-06T06:55:23.222Z,99185.27
2022-09-06T06:57:51.204Z,99182.92
2022-09-06T07:00:18.484Z,99186.34
2022-09-06T07:02:45.379Z,99187.75
2022-09-06T07:08:00.314Z,99179.10
2022-09-06T07:12:58.162Z,99188.15
2022-09-06T07:15:25.420Z,99190.48
2022-09-06T07:17:53.486Z,99188.33
2022-09-06T07:20:20.830Z,99189.90
2022-09-06T07:22:47.825Z,99194.20
2022-09-06T07:25:21.240Z,99191.27
2022-09-06T07:27:49.414Z,99197.46
2022-09-06T07:30:17.250Z,99200.30
2022-09-06T07:32:44.380Z,99198.83
2022-09-06T07:35:14.807Z,99208.92
2022-09-06T07:37:45.555Z,99209.92
2022-09-06T07:40:15.096Z,99209.83
2022-09-06T07:42:42.852Z,99210.34
2022-09-06T07:45:09.917Z,99209.27
2022-09-06T07:53:16.699Z,99197.05
2022-09-06T07:55:49.018Z,99199.42
2022-09-06T07:58:20.695Z,99206.20
2022-09-06T08:01:06.258Z,99196.95
2022-09-06T08:03:33.300Z,99203.05
2022-09-06T08:11:23.837Z,99201.83
2022-09-06T08:13:53.438Z,99205.64
2022-09-06T08:16:35.540Z,99199.23
2022-09-06T08:19:05.195Z,99199.57
2022-09-06T08:21:39.273Z,99197.32
2022-09-06T08:24:08.793Z,99187.59
2022-09-06T08:26:39.724Z,99196.03
2022-09-06T08:29:08.992Z,99197.31
2022-09-06T08:31:39.191Z,99193.23
2022-09-06T08:34:06.646Z,99187.27
2022-09-06T08:36:34.624Z,99187.13
2022-09-06T08:39:07.037Z,99184.02
2022-09-06T08:41:41.045Z,99176.41
2022-09-06T08:47:04.819Z,99171.88
2022-09-06T08:49:36.063Z,99175.45
2022-09-06T08:52:26.949Z,99173.43
2022-09-06T08:55:00.036Z,99173.89
2022-09-06T08:57:37.039Z,99178.44
2022-09-06T09:00:11.177Z,99180.63
2022-09-06T09:02:50.332Z,99183.77
2022-09-06T09:05:23.748Z,99175.43
2022-09-06T09:07:55.205Z,99188.20
2022-09-06T09:10:42.841Z,99183.73
2022-09-06T09:13:23.091Z,99176.16
2022-09-06T09:15:51.468Z,99177.15
2022-09-06T09:18:24.914Z,99175.45
2022-09-06T09:20:53.031Z,99163.36
2022-09-06T09:23:20.101Z,99160.86
2022-09-06T09:25:48.768Z,99162.49
2022-09-06T09:28:19.348Z,99162.44
2022-09-06T09:30:54.499Z,99163.80
2022-09-06T09:33:39.520Z,99156.24
2022-09-06T09:36:13.395Z,99156.74
2022-09-06T09:38:45.455Z,99154.33
2022-09-06T09:41:29.036Z,99146.90
2022-09-06T09:44:04.191Z,99136.39
2022-09-06T09:46:56.678Z,99135.08
2022-09-06T09:49:28.428Z,99126.83
2022-09-06T09:52:16.231Z,99123.79
2022-09-06T09:54:45.630Z,99112.66
2022-09-06T09:57:18.873Z,99109.73
2022-09-06T09:59:57.945Z,99107.65
2022-09-06T10:02:33.489Z,99092.55
2022-09-06T10:05:07.345Z,99102.77
2022-09-06T10:07:57.807Z,99094.15
2022-09-06T10:10:29.229Z,99094.52
2022-09-06T10:13:29.780Z,99080.52
2022-09-06T10:16:08.752Z,99088.18
2022-09-06T10:18:40.942Z,99088.13
2022-09-06T10:21:14.024Z,99086.11
2022-09-06T10:26:55.849Z,99091.45
2022-09-06T10:29:32.699Z,99090.58
2022-09-06T10:32:08.614Z,99090.64
2022-09-06T10:34:51.852Z,99090.05
2022-09-06T10:37:26.318Z,99088.30
2022-09-06T10:39:58.347Z,99083.73
2022-09-06T10:42:45.851Z,99092.54
2022-09-06T10:45:19.110Z,99090.54
2022-09-06T10:48:05.559Z,99096.70
2022-09-06T10:50:36.283Z,99088.57
2022-09-06T10:53:11.220Z,99082.84
2022-09-06T10:55:41.344Z,99090.97
2022-09-06T10:58:19.786Z,99084.14
2022-09-06T11:00:49.967Z,99078.79
2022-09-06T11:06:23.273Z,99075.58
2022-09-06T11:08:58.485Z,99079.88
2022-09-06T11:11:41.767Z,99081.23
2022-09-06T11:15:09.428Z,99069.58
2022-09-06T11:17:31.018Z,99082.08
2022-09-06T11:20:17.779Z,99082.66
2022-09-06T11:23:12.817Z,99072.98
2022-09-06T11:25:59.208Z,99073.70
2022-09-06T11:28:33.220Z,99070.59
2022-09-06T11:31:00.813Z,99069.62
2022-09-06T11:33:33.922Z,99059.92
2022-09-06T11:36:33.261Z,99064.84
2022-09-06T11:39:03.132Z,99052.05
2022-09-06T11:42:02.655Z,99042.33
2022-09-06T11:44:54.574Z,99039.68
2022-09-06T11:47:41.514Z,99043.55
2022-09-06T11:50:28.850Z,99040.57
2022-09-06T11:53:17.272Z,99041.55
2022-09-06T11:56:26.700Z,99036.39
2022-09-06T11:58:59.961Z,99043.96
2022-09-06T12:04:20.060Z,99038.32
2022-09-06T12:07:11.751Z,99038.93
2022-09-06T12:09:57.364Z,99037.95
2022-09-06T12:12:42.066Z,99033.73
2022-09-06T12:15:25.426Z,99024.09
2022-09-06T12:17:53.047Z,99021.43
2022-09-06T12:20:51.527Z,99002.04
2022-09-06T12:23:35.897Z,99004.45
2022-09-06T12:26:32.282Z,98998.25
2022-09-06T12:29:00.274Z,99002.19
2022-09-06T12:31:31.860Z,99000.08
2022-09-06T12:34:14.058Z,98993.21
2022-09-06T12:40:44.004Z,98987.20
2022-09-06T12:43:16.184Z,98996.58
2022-09-06T12:45:47.549Z,98991.54
2022-09-06T12:48:32.783Z,98985.20
2022-09-06T12:51:09.562Z,98973.69
2022-09-06T12:53:37.177Z,98988.20
2022-09-06T12:56:09.197Z,98987.95
2022-09-06T12:58:37.596Z,98985.77
2022-09-06T13:01:14.140Z,98979.38
2022-09-06T13:03:45.939Z,98977.61
2022-09-06T13:06:44.293Z,98981.30
2022-09-06T13:09:14.837Z,98976.28
2022-09-06T13:11:46.686Z,98977.78
2022-09-06T13:14:20.046Z,98976.10
2022-09-06T13:16:48.502Z,98974.39
2022-09-06T13:19:29.957Z,98968.73
2022-09-06T13:21:58.654Z,98959.75
2022-09-06T13:24:27.387Z,98960.71
2022-09-06T13:26:54.976Z,98958.55
2022-09-06T13:29:23.426Z,98961.22
2022-09-06T13:31:52.680Z,98955.49
2022-09-06T13:34:29.801Z,98958.50
2022-09-06T13:37:03.994Z,98958.61
2022-09-06T13:39:40.103Z,98953.55
2022-09-06T13:42:10.801Z,98954.31
2022-09-06T13:44:39.731Z,98952.88
2022-09-06T13:47:06.666Z,98953.64
2022-09-06T13:49:34.122Z,98951.29
2022-09-06T13:52:03.972Z,98945.13
2022-09-06T13:54:32.540Z,98944.90
2022-09-06T13:57:01.943Z,98943.87
2022-09-06T13:59:29.093Z,98941.73
2022-09-06T14:02:04.955Z,98936.94
2022-09-06T14:04:32.585Z,98935.86
2022-09-06T14:06:59.866Z,98932.08
2022-09-06T14:09:26.796Z,98932.36
2022-09-06T14:12:40.872Z,98931.17
2022-09-06T14:15:08.471Z,98930.21
2022-09-06T14:17:35.336Z,98929.55
2022-09-06T14:20:02.294Z,98933.85
2022-09-06T14:22:30.452Z,98934.14
2022-09-06T14:24:57.423Z,98928.68
2022-09-06T14:27:24.455Z,98928.27
2022-09-06T14:29:51.229Z,98924.88
2022-09-06T14:32:22.347Z,98920.55
2022-09-06T14:34:49.657Z,98920.71
2022-09-06T14:37:16.495Z,98923.73
2022-09-06T14:40:30.494Z,98924.86
2022-09-06T14:42:58.247Z,98929.47
2022-09-06T14:45:25.807Z,98925.85
2022-09-06T14:47:52.911Z,98923.94
2022-09-06T14:50:20.358Z,98927.55
2022-09-06T14:52:48.472Z,98926.55
2022-09-06T14:55:15.369Z,98924.61
2022-09-06T14:57:42.298Z,98924.96
2022-09-06T15:00:11.089Z,98928.02
2022-09-06T15:02:38.079Z,98930.27
2022-09-06T15:05:06.677Z,98927.56
2022-09-06T15:07:33.537Z,98920.59
2022-09-06T15:10:00.679Z,98921.57
2022-09-06T15:12:27.481Z,98919.02
2022-09-06T15:14:54.385Z,98911.31
2022-09-06T15:17:21.216Z,98902.02
2022-09-06T15:19:48.051Z,98897.26
2022-09-06T15:22:14.886Z,98903.48
2022-09-06T15:24:41.693Z,98901.10
2022-09-06T15:27:08.509Z,98901.11
2022-09-06T15:29:35.342Z,98901.89
2022-09-06T15:32:02.340Z,98901.23
2022-09-06T15:34:29.226Z,98900.40
2022-09-06T15:36:57.248Z,98897.59
2022-09-06T15:39:24.235Z,98896.44
2022-09-06T15:41:51.920Z,98897.15
2022-09-06T15:44:21.609Z,98898.40
2022-09-06T15:46:54.082Z,98902.39
2022-09-06T15:49:27.471Z,98900.77
2022-09-06T15:51:57.057Z,98901.14
2022-09-06T15:54:39.815Z,98899.88
2022-09-06T15:57:07.670Z,98894.95
2022-09-06T15:59:34.526Z,98897.47
2022-09-06T16:02:01.488Z,98898.68
2022-09-06T16:04:28.333Z,98900.25
2022-09-06T16:06:56.823Z,98898.69
2022-09-06T16:09:23.716Z,98898.73
2022-09-06T16:11:50.580Z,98898.15
2022-09-06T16:14:18.080Z,98895.86
2022-09-06T16:16:45.684Z,98890.20
2022-09-06T16:19:13.164Z,98893.98
2022-09-06T16:21:42.053Z,98889.80
2022-09-06T16:24:11.659Z,98889.95
2022-09-06T16:26:42.511Z,98894.09
2022-09-06T16:29:11.734Z,98896.73
2022-09-06T16:31:40.508Z,98899.64
2022-09-06T16:34:08.934Z,98890.09
2022-09-06T16:36:35.995Z,98889.49
2022-09-06T16:39:04.120Z,98889.95
2022-09-06T16:41:39.502Z,98885.05
2022-09-06T16:44:08.689Z,98887.77
2022-09-06T16:46:35.705Z,98885.12
2022-09-06T16:49:03.244Z,98884.73
2022-09-06T16:51:31.456Z,98876.86
2022-09-06T16:53:59.132Z,98876.00
2022-09-06T16:56:29.341Z,98875.52
2022-09-06T16:58:58.762Z,98872.94
2022-09-06T17:01:27.410Z,98873.63
2022-09-06T17:03:54.783Z,98874.92
2022-09-06T17:06:23.137Z,98871.52
2022-09-06T17:08:51.004Z,98877.01
2022-09-06T17:11:20.695Z,98877.16
2022-09-06T17:13:49.985Z,98878.05
2022-09-06T17:16:34.586Z,98881.30
2022-09-06T17:19:02.518Z,98881.42
2022-09-06T17:21:29.925Z,98879.41
2022-09-06T17:24:05.537Z,98882.91
2022-09-06T17:26:35.134Z,98880.48
2022-09-06T17:29:02.938Z,98878.81
2022-09-06T17:31:29.892Z,98883.50
2022-09-06T17:33:57.049Z,98886.98
2022-09-06T17:36:26.752Z,98880.10
2022-09-06T17:39:00.234Z,98885.98
2022-09-06T17:41:31.095Z,98890.83
2022-09-06T17:43:58.989Z,98891.17
2022-09-06T17:46:28.862Z,98898.77
2022-09-06T17:48:57.258Z,98901.89
2022-09-06T17:51:25.301Z,98898.17
2022-09-06T17:53:52.914Z,98905.06
2022-09-06T17:56:21.074Z,98905.60
2022-09-06T17:58:58.751Z,98911.61
2022-09-06T18:01:29.602Z,98911.80
2022-09-06T18:03:57.348Z,98912.67
2022-09-06T18:06:26.330Z,98915.44
2022-09-06T18:08:55.876Z,98913.06
2022-09-06T18:11:25.808Z,98909.08
2022-09-06T18:13:59.116Z,98913.64
2022-09-06T18:16:27.355Z,98916.42
2022-09-06T18:18:56.568Z,98908.00
2022-09-06T18:21:26.690Z,98912.19
2022-09-06T18:23:54.898Z,98910.70
2022-09-06T18:26:22.008Z,98910.39
2022-09-06T18:28:49.136Z,98914.44
2022-09-06T18:31:19.048Z,98917.95
2022-09-06T18:33:46.139Z,98919.21
2022-09-06T18:36:15.723Z,98928.61
2022-09-06T18:38:43.321Z,98930.25
2022-09-06T18:41:27.827Z,98928.40
2022-09-06T18:43:58.357Z,98929.52
2022-09-06T18:46:41.002Z,98921.18
2022-09-06T18:49:08.242Z,98918.63
2022-09-06T18:51:35.198Z,98914.46
2022-09-06T18:54:02.481Z,98915.86
2022-09-06T18:56:29.383Z,98913.08
2022-09-06T18:58:58.794Z,98918.92
2022-09-06T19:01:29.300Z,98922.27
2022-09-06T19:03:57.872Z,98923.05
2022-09-06T19:06:26.576Z,98927.33
2022-09-06T19:08:54.090Z,98929.84
2022-09-06T19:11:22.229Z,98929.13
2022-09-06T19:13:53.001Z,98926.74
2022-09-06T19:16:21.414Z,98930.39
2022-09-06T19:18:49.192Z,98927.29
2022-09-06T19:21:18.651Z,98922.13
2022-09-06T19:23:47.904Z,98923.81
2022-09-06T19:26:18.346Z,98923.49
2022-09-06T19:28:55.822Z,98919.08
2022-09-06T19:31:29.651Z,98913.99
2022-09-06T19:33:56.904Z,98913.73
2022-09-06T19:36:25.989Z,98912.91
2022-09-06T19:39:05.926Z,98907.52
2022-09-06T19:41:36.586Z,98902.58
2022-09-06T19:44:06.038Z,98901.79
2022-09-06T19:46:33.695Z,98901.41
2022-09-06T19:49:00.996Z,98895.17
2022-09-06T19:51:28.050Z,98895.73
2022-09-06T19:53:58.164Z,98893.22
2022-09-06T19:56:31.828Z,98894.29
2022-09-06T19:59:01.650Z,98893.23
2022-09-06T20:01:31.162Z,98895.36
2022-09-06T20:03:59.060Z,98894.69
2022-09-06T20:06:26.982Z,98895.69
2022-09-06T20:08:56.148Z,98898.27
2022-09-06T20:11:25.937Z,98899.15
2022-09-06T20:13:53.016Z,98897.27
2022-09-06T20:16:21.200Z,98896.27
2022-09-06T20:18:48.712Z,98898.76
2022-09-06T20:21:17.786Z,98893.75
2022-09-06T20:23:49.812Z,98890.41
2022-09-06T20:26:18.059Z,98890.27
2022-09-06T20:28:45.643Z,98883.09
2022-09-06T20:31:16.537Z,98876.39
2022-09-06T20:33:49.198Z,98877.49
2022-09-06T20:36:17.663Z,98877.95
2022-09-06T20:38:46.319Z,98872.16
2022-09-06T20:41:16.907Z,98873.77
2022-09-06T20:43:43.838Z,98877.73
2022-09-06T20:46:18.082Z,98874.57
2022-09-06T20:48:46.299Z,98873.71
2022-09-06T20:51:15.979Z,98873.94
2022-09-06T20:53:42.936Z,98872.58
2022-09-06T20:56:13.217Z,98872.79
2022-09-06T20:58:40.955Z,98871.80
2022-09-06T21:01:10.399Z,98875.75
2022-09-06T21:03:39.635Z,98877.39
2022-09-06T21:06:08.741Z,98880.21
2022-09-06T21:08:39.489Z,98878.67
2022-09-06T21:11:10.436Z,98875.05
2022-09-06T21:13:37.916Z,98876.79
2022-09-06T21:16:05.783Z,98876.41
2022-09-06T21:18:33.886Z,98879.27
2022-09-06T21:21:04.861Z,98876.74
2022-09-06T21:23:34.497Z,98878.02
2022-09-06T21:26:03.987Z,98878.58
2022-09-06T21:28:33.337Z,98879.98
2022-09-06T21:31:02.434Z,98873.89
2022-09-06T21:33:31.863Z,98882.06
2022-09-06T21:36:03.422Z,98882.52
2022-09-06T21:38:31.395Z,98887.15
2022-09-06T21:40:58.639Z,98881.13
2022-09-06T21:43:26.170Z,98881.05
2022-09-06T21:45:53.190Z,98879.16
2022-09-06T21:48:20.522Z,98875.43
2022-09-06T21:50:48.960Z,98879.05
2022-09-06T21:53:17.644Z,98878.02
2022-09-06T21:55:45.291Z,98875.60
2022-09-06T21:58:13.694Z,98875.11
2022-09-06T22:00:41.636Z,98868.36
2022-09-06T22:03:09.442Z,98861.35
2022-09-06T22:05:36.421Z,98855.41
2022-09-06T22:08:03.586Z,98853.64
2022-09-06T22:10:30.560Z,98846.02
2022-09-06T22:12:57.489Z,98839.84
2022-09-06T22:15:24.420Z,98842.35
2022-09-06T22:17:51.386Z,98839.09
2022-09-06T22:20:18.412Z,98838.58
2022-09-06T22:22:46.319Z,98831.77
2022-09-06T22:25:14.411Z,98834.06
2022-09-06T22:27:41.647Z,98833.88
2022-09-06T22:30:09.246Z,98838.26
2022-09-06T22:32:37.195Z,98837.38
2022-09-06T22:35:06.162Z,98838.44
2022-09-06T22:37:34.163Z,98839.40
2022-09-06T22:40:02.303Z,98842.74
2022-09-06T22:42:29.766Z,98848.21
2022-09-06T22:44:57.160Z,98852.94
2022-09-06T22:47:24.139Z,98854.67
2022-09-06T22:49:51.951Z,98851.36
2022-09-06T22:52:19.077Z,98851.75
2022-09-06T22:54:46.017Z,98849.56
2022-09-06T22:57:13.022Z,98844.99
2022-09-06T22:59:40.344Z,98838.88
2022-09-06T23:02:07.287Z,98836.34
2022-09-06T23:04:34.397Z,98845.11
2022-09-06T23:07:02.602Z,98847.22
2022-09-06T23:09:29.538Z,98841.15
2022-09-06T23:11:56.485Z,98837.48
2022-09-06T23:14:23.436Z,98831.98
2022-09-06T23:16:50.661Z,98831.38
2022-09-06T23:19:17.589Z,98832.80
2022-09-06T23:21:44.661Z,98835.86
2022-09-06T23:24:11.659Z,98836.45
2022-09-06T23:26:38.597Z,98831.91
2022-09-06T23:29:05.843Z,98827.95
2022-09-06T23:31:33.365Z,98829.81
2022-09-06T23:34:02.372Z,98836.34
2022-09-06T23:36:29.569Z,98832.90
2022-09-06T23:38:57.339Z,98834.20
2022-09-06T23:41:24.975Z,98826.23
2022-09-06T23:43:51.932Z,98826.34
2022-09-06T23:46:19.510Z,98825.04
2022-09-06T23:48:46.496Z,98816.86
2022-09-06T23:51:14.003Z,98816.17
2022-09-06T23:53:41.508Z,98811.29
2022-09-06T23:56:08.553Z,98809.89
2022-09-06T23:58:35.630Z,98811.75
